sensor_id;sensor_type;location;lat;lon;timestamp;temperature;humidity
19279;DHT22;9773;47.062;15.446;2023-06-24T00:02:11;16.90;99.90
19279;DHT22;9773;47.062;15.446;2023-06-24T00:04:39;16.90;99.90
19279;DHT22;9773;47.062;15.446;2023-06-24T00:07:04;16.90;99.90
19279;DHT22;9773;47.062;15.446;2023-06-24T00:09:30;16.90;99.90
19279;DHT22;9773;47.062;15.446;2023-06-24T00:11:57;16.90;99.90
19279;DHT22;9773;47.062;15.446;2023-06-24T00:14:27;16.90;99.90
19279;DHT22;9773;47.062;15.446;2023-06-24T00:16:54;16.80;99.90
19279;DHT22;9773;47.062;15.446;2023-06-24T00:19:21;16.80;99.90
19279;DHT22;9773;47.062;15.446;2023-06-24T00:21:51;16.80;99.90
19279;DHT22;9773;47.062;15.446;2023-06-24T00:24:20;16.70;99.90
19279;DHT22;9773;47.062;15.446;2023-06-24T00:26:47;16.70;99.90
19279;DHT22;9773;47.062;15.446;2023-06-24T00:29:13;16.70;99.90
19279;DHT22;9773;47.062;15.446;2023-06-24T00:31:38;16.70;99.90
19279;DHT22;9773;47.062;15.446;2023-06-24T00:34:04;16.70;99.90
19279;DHT22;9773;47.062;15.446;2023-06-24T00:36:30;16.70;99.90
19279;DHT22;9773;47.062;15.446;2023-06-24T00:39:01;16.60;99.90
19279;DHT22;9773;47.062;15.446;2023-06-24T00:41:27;16.70;99.90
19279;DHT22;9773;47.062;15.446;2023-06-24T00:43:53;16.60;99.90
19279;DHT22;9773;47.062;15.446;2023-06-24T00:46:19;16.60;99.90
19279;DHT22;9773;47.062;15.446;2023-06-24T00:48:45;16.60;99.90
19279;DHT22;9773;47.062;15.446;2023-06-24T00:51:10;16.60;99.90
19279;DHT22;9773;47.062;15.446;2023-06-24T00:53:37;16.60;99.90
19279;DHT22;9773;47.062;15.446;2023-06-24T00:56:02;16.60;99.90
19279;DHT22;9773;47.062;15.446;2023-06-24T00:58:31;16.60;99.90
19279;DHT22;9773;47.062;15.446;2023-06-24T01:00:58;16.60;99.90
19279;DHT22;9773;47.062;15.446;2023-06-24T01:03:24;16.60;99.90
19279;DHT22;9773;47.062;15.446;2023-06-24T01:05:51;16.60;99.90
19279;DHT22;9773;47.062;15.446;2023-06-24T01:08:17;16.60;99.90
19279;DHT22;9773;47.062;15.446;2023-06-24T01:10:45;16.50;99.90
19279;DHT22;9773;47.062;15.446;2023-06-24T01:13:10;16.50;99.90
19279;DHT22;9773;47.062;15.446;2023-06-24T01:15:36;16.40;99.90
19279;DHT22;9773;47.062;15.446;2023-06-24T01:21:26;16.40;99.90
19279;DHT22;9773;47.062;15.446;2023-06-24T01:24:09;16.40;99.90
19279;DHT22;9773;47.062;15.446;2023-06-24T01:32:33;16.50;99.90
19279;DHT22;9773;47.062;15.446;2023-06-24T01:35:08;16.40;99.90
19279;DHT22;9773;47.062;15.446;2023-06-24T01:37:53;16.40;99.90
19279;DHT22;9773;47.062;15.446;2023-06-24T01:40:32;16.40;99.90
19279;DHT22;9773;47.062;15.446;2023-06-24T01:43:01;16.20;99.90
19279;DHT22;9773;47.062;15.446;2023-06-24T01:45:49;16.10;99.90
19279;DHT22;9773;47.062;15.446;2023-06-24T01:48:27;16.10;99.90
19279;DHT22;9773;47.062;15.446;2023-06-24T01:51:03;16.20;99.90
19279;DHT22;9773;47.062;15.446;2023-06-24T01:53:34;16.20;99.90
19279;DHT22;9773;47.062;15.446;2023-06-24T01:56:02;16.20;99.90
19279;DHT22;9773;47.062;15.446;2023-06-24T01:58:30;16.20;99.90
19279;DHT22;9773;47.062;15.446;2023-06-24T02:00:57;16.10;99.90
19279;DHT22;9773;47.062;15.446;2023-06-24T02:03:24;16.10;99.90
19279;DHT22;9773;47.062;15.446;2023-06-24T02:05:52;16.10;99.90
19279;DHT22;9773;47.062;15.446;2023-06-24T02:08:20;16.10;99.90
19279;DHT22;9773;47.062;15.446;2023-06-24T02:10:47;16.20;99.90
19279;DHT22;9773;47.062;15.446;2023-06-24T02:13:16;16.10;99.90
19279;DHT22;9773;47.062;15.446;2023-06-24T02:15:43;16.10;99.90
19279;DHT22;9773;47.062;15.446;2023-06-24T02:18:12;16.10;99.90
19279;DHT22;9773;47.062;15.446;2023-06-24T02:20:40;16.10;99.90
19279;DHT22;9773;47.062;15.446;2023-06-24T02:23:07;16.10;99.90
19279;DHT22;9773;47.062;15.446;2023-06-24T02:25:35;16.10;99.90
19279;DHT22;9773;47.062;15.446;2023-06-24T02:28:05;16.10;99.90
19279;DHT22;9773;47.062;15.446;2023-06-24T02:30:33;16.10;99.90
19279;DHT22;9773;47.062;15.446;2023-06-24T02:32:59;16.00;99.90
19279;DHT22;9773;47.062;15.446;2023-06-24T02:35:25;16.00;99.90
19279;DHT22;9773;47.062;15.446;2023-06-24T02:37:51;16.00;99.90
19279;DHT22;9773;47.062;15.446;2023-06-24T02:40:17;15.90;99.90
19279;DHT22;9773;47.062;15.446;2023-06-24T02:42:43;15.90;99.90
19279;DHT22;9773;47.062;15.446;2023-06-24T02:45:09;15.90;99.90
19279;DHT22;9773;47.062;15.446;2023-06-24T02:47:36;15.90;99.90
19279;DHT22;9773;47.062;15.446;2023-06-24T02:50:03;15.90;99.90
19279;DHT22;9773;47.062;15.446;2023-06-24T02:52:30;15.90;99.90
19279;DHT22;9773;47.062;15.446;2023-06-24T02:54:57;15.90;99.90
19279;DHT22;9773;47.062;15.446;2023-06-24T02:57:25;15.90;99.90
19279;DHT22;9773;47.062;15.446;2023-06-24T02:59:51;15.90;99.90
19279;DHT22;9773;47.062;15.446;2023-06-24T03:02:17;15.90;99.90
19279;DHT22;9773;47.062;15.446;2023-06-24T03:04:43;15.90;99.90
19279;DHT22;9773;47.062;15.446;2023-06-24T03:07:10;15.90;99.90
19279;DHT22;9773;47.062;15.446;2023-06-24T03:09:36;15.90;99.90
19279;DHT22;9773;47.062;15.446;2023-06-24T03:12:02;15.90;99.90
19279;DHT22;9773;47.062;15.446;2023-06-24T03:14:28;15.90;99.90
19279;DHT22;9773;47.062;15.446;2023-06-24T03:16:54;15.90;99.90
19279;DHT22;9773;47.062;15.446;2023-06-24T03:19:19;16.00;99.90
19279;DHT22;9773;47.062;15.446;2023-06-24T03:21:45;15.90;99.90
19279;DHT22;9773;47.062;15.446;2023-06-24T03:24:11;16.00;99.90
19279;DHT22;9773;47.062;15.446;2023-06-24T03:26:40;16.00;99.90
19279;DHT22;9773;47.062;15.446;2023-06-24T03:29:06;16.00;99.90
19279;DHT22;9773;47.062;15.446;2023-06-24T03:31:34;15.90;99.90
19279;DHT22;9773;47.062;15.446;2023-06-24T03:34:00;15.90;99.90
19279;DHT22;9773;47.062;15.446;2023-06-24T03:36:26;15.80;99.90
19279;DHT22;9773;47.062;15.446;2023-06-24T03:38:52;15.90;99.90
19279;DHT22;9773;47.062;15.446;2023-06-24T03:41:17;15.90;99.90
19279;DHT22;9773;47.062;15.446;2023-06-24T03:43:44;16.00;99.90
19279;DHT22;9773;47.062;15.446;2023-06-24T03:46:11;15.80;99.90
19279;DHT22;9773;47.062;15.446;2023-06-24T03:48:37;15.90;99.90
19279;DHT22;9773;47.062;15.446;2023-06-24T03:51:02;15.90;99.90
19279;DHT22;9773;47.062;15.446;2023-06-24T03:53:28;16.00;99.90
19279;DHT22;9773;47.062;15.446;2023-06-24T03:55:54;16.10;99.90
19279;DHT22;9773;47.062;15.446;2023-06-24T03:58:20;16.10;99.90
19279;DHT22;9773;47.062;15.446;2023-06-24T04:00:47;16.10;99.90
19279;DHT22;9773;47.062;15.446;2023-06-24T04:03:15;16.10;99.90
19279;DHT22;9773;47.062;15.446;2023-06-24T04:05:44;16.20;99.90
19279;DHT22;9773;47.062;15.446;2023-06-24T04:08:10;16.20;99.90
19279;DHT22;9773;47.062;15.446;2023-06-24T04:10:35;16.30;99.90
19279;DHT22;9773;47.062;15.446;2023-06-24T04:13:01;16.30;99.90
19279;DHT22;9773;47.062;15.446;2023-06-24T04:15:27;16.30;99.90
19279;DHT22;9773;47.062;15.446;2023-06-24T04:17:52;16.40;99.90
19279;DHT22;9773;47.062;15.446;2023-06-24T04:20:18;16.30;99.90
19279;DHT22;9773;47.062;15.446;2023-06-24T04:22:44;16.30;99.90
19279;DHT22;9773;47.062;15.446;2023-06-24T04:25:10;16.30;99.90
19279;DHT22;9773;47.062;15.446;2023-06-24T04:27:36;16.30;99.90
19279;DHT22;9773;47.062;15.446;2023-06-24T04:30:02;16.40;99.90
19279;DHT22;9773;47.062;15.446;2023-06-24T04:32:29;16.50;99.90
19279;DHT22;9773;47.062;15.446;2023-06-24T04:34:54;16.60;99.90
19279;DHT22;9773;47.062;15.446;2023-06-24T04:37:20;16.60;99.90
19279;DHT22;9773;47.062;15.446;2023-06-24T04:39:46;16.60;99.90
19279;DHT22;9773;47.062;15.446;2023-06-24T04:42:12;16.70;99.90
19279;DHT22;9773;47.062;15.446;2023-06-24T04:44:38;16.90;99.90
19279;DHT22;9773;47.062;15.446;2023-06-24T04:47:03;17.00;99.90
19279;DHT22;9773;47.062;15.446;2023-06-24T04:49:29;17.10;99.90
19279;DHT22;9773;47.062;15.446;2023-06-24T04:51:55;17.30;99.90
19279;DHT22;9773;47.062;15.446;2023-06-24T04:54:20;17.50;99.90
19279;DHT22;9773;47.062;15.446;2023-06-24T04:56:46;17.60;99.90
19279;DHT22;9773;47.062;15.446;2023-06-24T04:59:14;17.70;99.90
19279;DHT22;9773;47.062;15.446;2023-06-24T05:01:39;17.80;99.90
19279;DHT22;9773;47.062;15.446;2023-06-24T05:04:05;17.70;99.90
19279;DHT22;9773;47.062;15.446;2023-06-24T05:06:31;17.70;99.90
19279;DHT22;9773;47.062;15.446;2023-06-24T05:08:57;17.70;99.90
19279;DHT22;9773;47.062;15.446;2023-06-24T05:11:22;17.70;99.90
19279;DHT22;9773;47.062;15.446;2023-06-24T05:13:48;17.80;99.90
19279;DHT22;9773;47.062;15.446;2023-06-24T05:16:14;17.90;99.90
19279;DHT22;9773;47.062;15.446;2023-06-24T05:18:40;17.90;99.90
19279;DHT22;9773;47.062;15.446;2023-06-24T05:21:05;17.90;99.90
19279;DHT22;9773;47.062;15.446;2023-06-24T05:23:31;17.90;99.90
19279;DHT22;9773;47.062;15.446;2023-06-24T05:25:57;17.90;99.90
19279;DHT22;9773;47.062;15.446;2023-06-24T05:28:23;17.90;99.90
19279;DHT22;9773;47.062;15.446;2023-06-24T05:30:48;17.90;99.90
19279;DHT22;9773;47.062;15.446;2023-06-24T05:33:14;17.80;99.90
19279;DHT22;9773;47.062;15.446;2023-06-24T05:35:43;17.90;99.90
19279;DHT22;9773;47.062;15.446;2023-06-24T05:38:08;17.90;99.90
19279;DHT22;9773;47.062;15.446;2023-06-24T05:40:34;17.90;99.90
19279;DHT22;9773;47.062;15.446;2023-06-24T05:43:00;17.90;99.90
19279;DHT22;9773;47.062;15.446;2023-06-24T05:45:26;17.90;99.90
19279;DHT22;9773;47.062;15.446;2023-06-24T05:47:52;17.80;99.90
19279;DHT22;9773;47.062;15.446;2023-06-24T05:50:18;17.70;99.90
19279;DHT22;9773;47.062;15.446;2023-06-24T05:52:44;17.80;99.90
19279;DHT22;9773;47.062;15.446;2023-06-24T05:55:09;17.90;99.90
19279;DHT22;9773;47.062;15.446;2023-06-24T05:57:36;18.00;99.90
19279;DHT22;9773;47.062;15.446;2023-06-24T06:00:02;18.00;99.90
19279;DHT22;9773;47.062;15.446;2023-06-24T06:02:30;17.90;99.90
19279;DHT22;9773;47.062;15.446;2023-06-24T06:04:55;17.90;99.90
19279;DHT22;9773;47.062;15.446;2023-06-24T06:07:21;17.90;99.90
19279;DHT22;9773;47.062;15.446;2023-06-24T06:09:47;17.90;99.90
19279;DHT22;9773;47.062;15.446;2023-06-24T06:12:13;18.00;99.90
19279;DHT22;9773;47.062;15.446;2023-06-24T06:14:38;18.10;99.90
19279;DHT22;9773;47.062;15.446;2023-06-24T06:17:04;18.20;99.90
19279;DHT22;9773;47.062;15.446;2023-06-24T06:19:30;18.30;99.90
19279;DHT22;9773;47.062;15.446;2023-06-24T06:21:56;18.30;99.90
19279;DHT22;9773;47.062;15.446;2023-06-24T06:24:22;18.40;99.90
19279;DHT22;9773;47.062;15.446;2023-06-24T06:26:47;18.50;99.90
19279;DHT22;9773;47.062;15.446;2023-06-24T06:29:13;18.60;99.90
19279;DHT22;9773;47.062;15.446;2023-06-24T06:31:39;18.80;99.90
19279;DHT22;9773;47.062;15.446;2023-06-24T06:34:05;18.90;99.90
19279;DHT22;9773;47.062;15.446;2023-06-24T06:36:31;18.90;99.90
19279;DHT22;9773;47.062;15.446;2023-06-24T06:38:56;19.20;99.90
19279;DHT22;9773;47.062;15.446;2023-06-24T06:41:22;19.40;99.90
19279;DHT22;9773;47.062;15.446;2023-06-24T06:43:53;19.70;99.90
19279;DHT22;9773;47.062;15.446;2023-06-24T06:46:20;19.90;99.90
19279;DHT22;9773;47.062;15.446;2023-06-24T06:48:45;20.00;99.90
19279;DHT22;9773;47.062;15.446;2023-06-24T06:51:12;20.20;99.90
19279;DHT22;9773;47.062;15.446;2023-06-24T06:53:39;20.20;99.90
19279;DHT22;9773;47.062;15.446;2023-06-24T06:56:05;20.20;99.90
19279;DHT22;9773;47.062;15.446;2023-06-24T06:58:31;20.20;99.90
19279;DHT22;9773;47.062;15.446;2023-06-24T07:00:57;20.30;99.90
19279;DHT22;9773;47.062;15.446;2023-06-24T07:03:27;20.40;99.90
19279;DHT22;9773;47.062;15.446;2023-06-24T07:05:53;20.60;99.90
19279;DHT22;9773;47.062;15.446;2023-06-24T07:08:19;20.80;99.90
19279;DHT22;9773;47.062;15.446;2023-06-24T07:10:45;20.80;99.90
19279;DHT22;9773;47.062;15.446;2023-06-24T07:13:11;21.10;99.90
19279;DHT22;9773;47.062;15.446;2023-06-24T07:15:36;21.00;99.90
19279;DHT22;9773;47.062;15.446;2023-06-24T07:18:02;21.10;99.90
19279;DHT22;9773;47.062;15.446;2023-06-24T07:20:28;21.20;99.90
19279;DHT22;9773;47.062;15.446;2023-06-24T07:22:54;21.10;99.90
19279;DHT22;9773;47.062;15.446;2023-06-24T07:25:19;21.00;99.90
19279;DHT22;9773;47.062;15.446;2023-06-24T07:27:45;20.80;99.90
19279;DHT22;9773;47.062;15.446;2023-06-24T07:30:11;20.80;99.90
19279;DHT22;9773;47.062;15.446;2023-06-24T07:32:37;20.60;99.90
19279;DHT22;9773;47.062;15.446;2023-06-24T07:35:03;20.70;99.90
19279;DHT22;9773;47.062;15.446;2023-06-24T07:37:29;20.90;99.90
19279;DHT22;9773;47.062;15.446;2023-06-24T07:39:54;20.90;99.90
19279;DHT22;9773;47.062;15.446;2023-06-24T07:42:20;21.00;99.90
19279;DHT22;9773;47.062;15.446;2023-06-24T07:44:47;21.10;99.90
19279;DHT22;9773;47.062;15.446;2023-06-24T07:47:13;21.20;99.90
19279;DHT22;9773;47.062;15.446;2023-06-24T07:49:39;21.20;99.90
19279;DHT22;9773;47.062;15.446;2023-06-24T07:52:05;21.10;99.90
19279;DHT22;9773;47.062;15.446;2023-06-24T07:54:32;21.30;99.90
19279;DHT22;9773;47.062;15.446;2023-06-24T07:56:57;21.40;99.90
19279;DHT22;9773;47.062;15.446;2023-06-24T07:59:23;21.20;99.90
19279;DHT22;9773;47.062;15.446;2023-06-24T08:01:50;21.20;99.90
19279;DHT22;9773;47.062;15.446;2023-06-24T08:04:16;21.10;99.90
19279;DHT22;9773;47.062;15.446;2023-06-24T08:06:43;21.20;99.90
19279;DHT22;9773;47.062;15.446;2023-06-24T08:09:08;21.20;99.90
19279;DHT22;9773;47.062;15.446;2023-06-24T08:11:34;21.40;99.90
19279;DHT22;9773;47.062;15.446;2023-06-24T08:14:00;21.50;99.90
19279;DHT22;9773;47.062;15.446;2023-06-24T08:16:27;21.50;99.90
19279;DHT22;9773;47.062;15.446;2023-06-24T08:18:54;21.50;99.90
19279;DHT22;9773;47.062;15.446;2023-06-24T08:21:20;21.60;99.90
19279;DHT22;9773;47.062;15.446;2023-06-24T08:23:46;21.70;99.90
19279;DHT22;9773;47.062;15.446;2023-06-24T08:26:12;21.50;99.90
19279;DHT22;9773;47.062;15.446;2023-06-24T08:28:38;21.50;99.90
19279;DHT22;9773;47.062;15.446;2023-06-24T08:31:03;21.40;99.90
19279;DHT22;9773;47.062;15.446;2023-06-24T08:33:29;21.30;99.90
19279;DHT22;9773;47.062;15.446;2023-06-24T08:35:55;21.40;99.90
19279;DHT22;9773;47.062;15.446;2023-06-24T08:38:21;21.40;99.90
19279;DHT22;9773;47.062;15.446;2023-06-24T08:40:47;21.50;99.90
19279;DHT22;9773;47.062;15.446;2023-06-24T08:43:14;21.60;99.90
19279;DHT22;9773;47.062;15.446;2023-06-24T08:45:40;21.70;99.90
19279;DHT22;9773;47.062;15.446;2023-06-24T08:48:06;21.70;99.90
19279;DHT22;9773;47.062;15.446;2023-06-24T08:50:38;21.80;99.90
19279;DHT22;9773;47.062;15.446;2023-06-24T08:53:07;22.00;99.90
19279;DHT22;9773;47.062;15.446;2023-06-24T08:55:41;22.00;99.90
19279;DHT22;9773;47.062;15.446;2023-06-24T08:58:08;22.10;99.90
19279;DHT22;9773;47.062;15.446;2023-06-24T09:00:34;22.20;99.90
19279;DHT22;9773;47.062;15.446;2023-06-24T09:03:00;22.30;99.90
19279;DHT22;9773;47.062;15.446;2023-06-24T09:05:26;22.20;99.90
19279;DHT22;9773;47.062;15.446;2023-06-24T09:07:52;22.20;99.90
19279;DHT22;9773;47.062;15.446;2023-06-24T09:10:32;22.20;99.90
19279;DHT22;9773;47.062;15.446;2023-06-24T09:13:02;22.10;99.90
19279;DHT22;9773;47.062;15.446;2023-06-24T09:15:36;21.90;99.60
19279;DHT22;9773;47.062;15.446;2023-06-24T09:18:03;22.10;99.90
19279;DHT22;9773;47.062;15.446;2023-06-24T09:20:33;22.20;99.90
19279;DHT22;9773;47.062;15.446;2023-06-24T09:23:04;22.20;99.90
19279;DHT22;9773;47.062;15.446;2023-06-24T09:25:31;22.50;99.90
19279;DHT22;9773;47.062;15.446;2023-06-24T09:28:03;22.40;99.30
19279;DHT22;9773;47.062;15.446;2023-06-24T09:30:29;22.20;99.50
19279;DHT22;9773;47.062;15.446;2023-06-24T09:32:55;22.40;99.80
19279;DHT22;9773;47.062;15.446;2023-06-24T09:35:23;22.40;98.80
19279;DHT22;9773;47.062;15.446;2023-06-24T09:37:51;22.40;99.50
19279;DHT22;9773;47.062;15.446;2023-06-24T09:40:17;22.50;99.00
19279;DHT22;9773;47.062;15.446;2023-06-24T09:42:52;22.50;98.70
19279;DHT22;9773;47.062;15.446;2023-06-24T09:45:23;22.40;99.10
19279;DHT22;9773;47.062;15.446;2023-06-24T09:47:49;22.60;99.30
19279;DHT22;9773;47.062;15.446;2023-06-24T09:50:15;22.70;98.20
19279;DHT22;9773;47.062;15.446;2023-06-24T09:52:43;22.60;98.30
19279;DHT22;9773;47.062;15.446;2023-06-24T09:55:12;22.50;98.80
19279;DHT22;9773;47.062;15.446;2023-06-24T09:57:39;22.50;98.60
19279;DHT22;9773;47.062;15.446;2023-06-24T10:00:06;22.50;98.80
19279;DHT22;9773;47.062;15.446;2023-06-24T10:02:33;22.50;98.50
19279;DHT22;9773;47.062;15.446;2023-06-24T10:05:00;22.40;98.30
19279;DHT22;9773;47.062;15.446;2023-06-24T10:07:28;22.50;99.30
19279;DHT22;9773;47.062;15.446;2023-06-24T10:09:54;22.40;98.40
19279;DHT22;9773;47.062;15.446;2023-06-24T10:12:20;22.50;98.60
19279;DHT22;9773;47.062;15.446;2023-06-24T10:14:46;22.60;98.90
19279;DHT22;9773;47.062;15.446;2023-06-24T10:17:14;22.80;98.80
19279;DHT22;9773;47.062;15.446;2023-06-24T10:19:40;22.90;98.20
19279;DHT22;9773;47.062;15.446;2023-06-24T10:22:10;22.80;97.10
19279;DHT22;9773;47.062;15.446;2023-06-24T10:24:40;22.90;96.70
19279;DHT22;9773;47.062;15.446;2023-06-24T10:27:18;22.90;97.00
19279;DHT22;9773;47.062;15.446;2023-06-24T10:29:51;23.00;96.80
19279;DHT22;9773;47.062;15.446;2023-06-24T10:32:19;22.90;96.80
19279;DHT22;9773;47.062;15.446;2023-06-24T10:34:46;23.00;96.70
19279;DHT22;9773;47.062;15.446;2023-06-24T10:37:31;23.00;96.50
19279;DHT22;9773;47.062;15.446;2023-06-24T10:39:58;22.80;96.70
19279;DHT22;9773;47.062;15.446;2023-06-24T10:42:38;22.90;97.00
19279;DHT22;9773;47.062;15.446;2023-06-24T10:47:41;22.70;96.90
19279;DHT22;9773;47.062;15.446;2023-06-24T10:50:09;22.70;97.40
19279;DHT22;9773;47.062;15.446;2023-06-24T10:52:43;22.70;96.80
19279;DHT22;9773;47.062;15.446;2023-06-24T10:55:10;22.50;96.60
19279;DHT22;9773;47.062;15.446;2023-06-24T10:57:36;22.60;96.90
19279;DHT22;9773;47.062;15.446;2023-06-24T11:00:03;22.60;97.00
19279;DHT22;9773;47.062;15.446;2023-06-24T11:02:29;22.60;97.00
19279;DHT22;9773;47.062;15.446;2023-06-24T11:04:57;22.50;97.20
19279;DHT22;9773;47.062;15.446;2023-06-24T11:07:26;22.40;97.20
19279;DHT22;9773;47.062;15.446;2023-06-24T11:09:54;22.20;96.90
19279;DHT22;9773;47.062;15.446;2023-06-24T11:12:34;22.30;97.20
19279;DHT22;9773;47.062;15.446;2023-06-24T11:15:05;22.30;97.10
19279;DHT22;9773;47.062;15.446;2023-06-24T11:17:33;22.30;97.20
19279;DHT22;9773;47.062;15.446;2023-06-24T11:19:59;22.20;97.00
19279;DHT22;9773;47.062;15.446;2023-06-24T11:22:26;22.30;97.10
19279;DHT22;9773;47.062;15.446;2023-06-24T11:24:52;22.30;97.10
19279;DHT22;9773;47.062;15.446;2023-06-24T11:27:27;22.40;97.00
19279;DHT22;9773;47.062;15.446;2023-06-24T11:29:54;22.40;97.10
19279;DHT22;9773;47.062;15.446;2023-06-24T11:32:21;22.50;96.80
19279;DHT22;9773;47.062;15.446;2023-06-24T11:34:47;22.60;96.80
19279;DHT22;9773;47.062;15.446;2023-06-24T11:37:15;22.80;96.40
19279;DHT22;9773;47.062;15.446;2023-06-24T11:39:42;22.90;96.50
19279;DHT22;9773;47.062;15.446;2023-06-24T11:42:09;23.00;96.20
19279;DHT22;9773;47.062;15.446;2023-06-24T11:44:35;23.10;96.90
19279;DHT22;9773;47.062;15.446;2023-06-24T11:47:05;23.10;95.80
19279;DHT22;9773;47.062;15.446;2023-06-24T11:49:31;23.10;96.30
19279;DHT22;9773;47.062;15.446;2023-06-24T11:51:57;23.00;96.20
19279;DHT22;9773;47.062;15.446;2023-06-24T11:54:23;22.90;96.20
19279;DHT22;9773;47.062;15.446;2023-06-24T11:56:51;22.90;96.40
19279;DHT22;9773;47.062;15.446;2023-06-24T11:59:21;22.90;95.90
19279;DHT22;9773;47.062;15.446;2023-06-24T12:01:55;23.00;96.10
19279;DHT22;9773;47.062;15.446;2023-06-24T12:04:21;23.00;96.30
19279;DHT22;9773;47.062;15.446;2023-06-24T12:06:52;23.20;95.90
19279;DHT22;9773;47.062;15.446;2023-06-24T12:09:18;23.10;96.00
19279;DHT22;9773;47.062;15.446;2023-06-24T12:11:43;23.00;95.70
19279;DHT22;9773;47.062;15.446;2023-06-24T12:14:09;23.00;96.10
19279;DHT22;9773;47.062;15.446;2023-06-24T12:16:35;22.90;96.00
19279;DHT22;9773;47.062;15.446;2023-06-24T12:19:01;22.80;96.20
19279;DHT22;9773;47.062;15.446;2023-06-24T12:21:27;22.80;95.70
19279;DHT22;9773;47.062;15.446;2023-06-24T12:23:53;22.70;95.90
19279;DHT22;9773;47.062;15.446;2023-06-24T12:26:19;22.80;96.30
19279;DHT22;9773;47.062;15.446;2023-06-24T12:28:44;23.00;96.00
19279;DHT22;9773;47.062;15.446;2023-06-24T12:31:11;23.30;96.10
19279;DHT22;9773;47.062;15.446;2023-06-24T12:33:37;23.20;95.60
19279;DHT22;9773;47.062;15.446;2023-06-24T12:36:03;23.20;95.60
19279;DHT22;9773;47.062;15.446;2023-06-24T12:38:29;23.40;95.60
19279;DHT22;9773;47.062;15.446;2023-06-24T12:40:54;23.30;95.40
19279;DHT22;9773;47.062;15.446;2023-06-24T12:43:20;22.80;95.10
19279;DHT22;9773;47.062;15.446;2023-06-24T12:45:46;22.90;95.70
19279;DHT22;9773;47.062;15.446;2023-06-24T12:48:13;22.90;95.70
19279;DHT22;9773;47.062;15.446;2023-06-24T12:50:39;22.90;95.60
19279;DHT22;9773;47.062;15.446;2023-06-24T12:53:05;22.90;95.50
19279;DHT22;9773;47.062;15.446;2023-06-24T12:55:31;22.80;95.80
19279;DHT22;9773;47.062;15.446;2023-06-24T12:57:57;22.60;95.80
19279;DHT22;9773;47.062;15.446;2023-06-24T13:00:24;22.60;95.40
19279;DHT22;9773;47.062;15.446;2023-06-24T13:02:50;22.50;95.50
19279;DHT22;9773;47.062;15.446;2023-06-24T13:05:17;22.60;95.70
19279;DHT22;9773;47.062;15.446;2023-06-24T13:07:43;22.60;95.70
19279;DHT22;9773;47.062;15.446;2023-06-24T13:10:10;22.60;95.90
19279;DHT22;9773;47.062;15.446;2023-06-24T13:12:36;22.80;95.60
19279;DHT22;9773;47.062;15.446;2023-06-24T13:15:03;22.80;95.30
19279;DHT22;9773;47.062;15.446;2023-06-24T13:17:30;22.80;95.40
19279;DHT22;9773;47.062;15.446;2023-06-24T13:19:56;23.00;95.70
19279;DHT22;9773;47.062;15.446;2023-06-24T13:22:23;22.90;95.80
19279;DHT22;9773;47.062;15.446;2023-06-24T13:24:49;22.80;95.50
19279;DHT22;9773;47.062;15.446;2023-06-24T13:27:15;22.90;95.50
19279;DHT22;9773;47.062;15.446;2023-06-24T13:29:42;22.90;95.30
19279;DHT22;9773;47.062;15.446;2023-06-24T13:32:08;22.70;95.30
19279;DHT22;9773;47.062;15.446;2023-06-24T13:34:34;22.70;95.60
19279;DHT22;9773;47.062;15.446;2023-06-24T13:37:00;22.70;95.50
19279;DHT22;9773;47.062;15.446;2023-06-24T13:39:26;22.60;95.30
19279;DHT22;9773;47.062;15.446;2023-06-24T13:41:53;22.50;95.70
19279;DHT22;9773;47.062;15.446;2023-06-24T13:44:19;22.60;95.40
19279;DHT22;9773;47.062;15.446;2023-06-24T13:46:45;22.50;95.70
19279;DHT22;9773;47.062;15.446;2023-06-24T13:49:11;22.60;95.30
19279;DHT22;9773;47.062;15.446;2023-06-24T13:51:37;22.50;95.10
19279;DHT22;9773;47.062;15.446;2023-06-24T13:54:03;22.50;95.40
19279;DHT22;9773;47.062;15.446;2023-06-24T13:56:29;22.50;95.70
19279;DHT22;9773;47.062;15.446;2023-06-24T13:58:55;22.50;95.80
19279;DHT22;9773;47.062;15.446;2023-06-24T14:01:22;22.60;95.70
19279;DHT22;9773;47.062;15.446;2023-06-24T14:03:48;22.60;95.50
19279;DHT22;9773;47.062;15.446;2023-06-24T14:06:16;22.60;95.40
19279;DHT22;9773;47.062;15.446;2023-06-24T14:08:43;22.50;95.40
19279;DHT22;9773;47.062;15.446;2023-06-24T14:11:09;22.40;95.40
19279;DHT22;9773;47.062;15.446;2023-06-24T14:13:34;22.40;95.60
19279;DHT22;9773;47.062;15.446;2023-06-24T14:16:02;22.40;95.30
19279;DHT22;9773;47.062;15.446;2023-06-24T14:18:28;22.40;95.40
19279;DHT22;9773;47.062;15.446;2023-06-24T14:21:01;22.40;95.40
19279;DHT22;9773;47.062;15.446;2023-06-24T14:23:28;22.40;95.60
19279;DHT22;9773;47.062;15.446;2023-06-24T14:25:54;22.20;95.20
19279;DHT22;9773;47.062;15.446;2023-06-24T14:28:20;22.20;95.50
19279;DHT22;9773;47.062;15.446;2023-06-24T14:30:46;22.10;95.40
19279;DHT22;9773;47.062;15.446;2023-06-24T14:33:13;22.20;95.30
19279;DHT22;9773;47.062;15.446;2023-06-24T14:35:41;22.20;95.40
19279;DHT22;9773;47.062;15.446;2023-06-24T14:38:07;22.20;95.90
19279;DHT22;9773;47.062;15.446;2023-06-24T14:40:33;22.40;95.70
19279;DHT22;9773;47.062;15.446;2023-06-24T14:42:59;22.40;95.40
19279;DHT22;9773;47.062;15.446;2023-06-24T14:45:25;22.40;95.40
19279;DHT22;9773;47.062;15.446;2023-06-24T14:47:51;22.50;95.20
19279;DHT22;9773;47.062;15.446;2023-06-24T14:50:17;22.60;95.60
19279;DHT22;9773;47.062;15.446;2023-06-24T14:52:43;22.90;95.40
19279;DHT22;9773;47.062;15.446;2023-06-24T14:55:08;22.90;94.80
19279;DHT22;9773;47.062;15.446;2023-06-24T14:57:35;23.00;95.10
19279;DHT22;9773;47.062;15.446;2023-06-24T15:00:02;23.20;94.70
19279;DHT22;9773;47.062;15.446;2023-06-24T15:02:27;23.30;94.60
19279;DHT22;9773;47.062;15.446;2023-06-24T15:04:53;23.20;94.40
19279;DHT22;9773;47.062;15.446;2023-06-24T15:07:19;22.90;94.40
19279;DHT22;9773;47.062;15.446;2023-06-24T15:09:45;22.60;94.50
19279;DHT22;9773;47.062;15.446;2023-06-24T15:12:10;22.40;94.60
19279;DHT22;9773;47.062;15.446;2023-06-24T15:14:36;22.30;94.80
19279;DHT22;9773;47.062;15.446;2023-06-24T15:17:03;22.20;94.80
19279;DHT22;9773;47.062;15.446;2023-06-24T15:19:29;22.10;95.20
19279;DHT22;9773;47.062;15.446;2023-06-24T15:21:55;22.20;95.10
19279;DHT22;9773;47.062;15.446;2023-06-24T15:24:21;22.40;95.00
19279;DHT22;9773;47.062;15.446;2023-06-24T15:26:46;22.40;95.10
19279;DHT22;9773;47.062;15.446;2023-06-24T15:29:12;22.30;95.40
19279;DHT22;9773;47.062;15.446;2023-06-24T15:31:38;22.30;95.30
19279;DHT22;9773;47.062;15.446;2023-06-24T15:34:03;22.30;95.20
19279;DHT22;9773;47.062;15.446;2023-06-24T15:36:29;22.20;95.10
19279;DHT22;9773;47.062;15.446;2023-06-24T15:38:56;22.10;95.10
19279;DHT22;9773;47.062;15.446;2023-06-24T15:41:22;22.20;95.30